sensor_id;sensor_type;location;lat;lon;timestamp;temperature;humidity
44775;DHT22;31340;51.402;0.016;2023-03-17T00:00:46;13.40;99.90
44775;DHT22;31340;51.402;0.016;2023-03-17T00:03:25;13.40;99.90
44775;DHT22;31340;51.402;0.016;2023-03-17T00:05:54;13.40;99.90
44775;DHT22;31340;51.402;0.016;2023-03-17T00:08:33;13.30;99.90
44775;DHT22;31340;51.402;0.016;2023-03-17T00:11:01;13.30;99.90
44775;DHT22;31340;51.402;0.016;2023-03-17T00:13:29;13.30;99.90
44775;DHT22;31340;51.402;0.016;2023-03-17T00:16:03;13.30;99.90
44775;DHT22;31340;51.402;0.016;2023-03-17T00:18:31;13.30;99.90
44775;DHT22;31340;51.402;0.016;2023-03-17T00:20:59;13.20;99.90
44775;DHT22;31340;51.402;0.016;2023-03-17T00:23:27;13.20;99.90
44775;DHT22;31340;51.402;0.016;2023-03-17T00:25:56;13.20;99.90
44775;DHT22;31340;51.402;0.016;2023-03-17T00:28:26;13.20;99.90
44775;DHT22;31340;51.402;0.016;2023-03-17T00:30:57;13.20;99.90
44775;DHT22;31340;51.402;0.016;2023-03-17T00:33:26;13.20;99.90
44775;DHT22;31340;51.402;0.016;2023-03-17T00:35:54;13.20;99.90
44775;DHT22;31340;51.402;0.016;2023-03-17T00:38:24;13.20;99.90
44775;DHT22;31340;51.402;0.016;2023-03-17T00:40:52;13.20;99.90
44775;DHT22;31340;51.402;0.016;2023-03-17T00:43:21;13.20;99.90
44775;DHT22;31340;51.402;0.016;2023-03-17T00:45:50;13.20;99.90
44775;DHT22;31340;51.402;0.016;2023-03-17T00:48:21;13.20;99.90
44775;DHT22;31340;51.402;0.016;2023-03-17T00:50:49;13.20;99.90
44775;DHT22;31340;51.402;0.016;2023-03-17T00:53:18;13.20;99.90
44775;DHT22;31340;51.402;0.016;2023-03-17T00:55:48;13.20;99.90
44775;DHT22;31340;51.402;0.016;2023-03-17T00:58:25;13.20;99.90
44775;DHT22;31340;51.402;0.016;2023-03-17T01:00:54;13.30;99.90
44775;DHT22;31340;51.402;0.016;2023-03-17T01:03:23;13.30;99.90
44775;DHT22;31340;51.402;0.016;2023-03-17T01:05:52;13.30;99.90
44775;DHT22;31340;51.402;0.016;2023-03-17T01:08:21;13.40;99.90
44775;DHT22;31340;51.402;0.016;2023-03-17T01:10:50;13.30;99.90
44775;DHT22;31340;51.402;0.016;2023-03-17T01:13:18;13.30;99.90
44775;DHT22;31340;51.402;0.016;2023-03-17T01:15:47;13.30;99.90
44775;DHT22;31340;51.402;0.016;2023-03-17T01:18:18;13.40;99.90
44775;DHT22;31340;51.402;0.016;2023-03-17T01:20:46;13.40;99.90
44775;DHT22;31340;51.402;0.016;2023-03-17T01:23:14;13.40;99.90
44775;DHT22;31340;51.402;0.016;2023-03-17T01:25:43;13.40;99.90
44775;DHT22;31340;51.402;0.016;2023-03-17T01:28:13;13.40;99.90
44775;DHT22;31340;51.402;0.016;2023-03-17T01:30:41;13.40;99.90
44775;DHT22;31340;51.402;0.016;2023-03-17T01:33:11;13.40;99.90
44775;DHT22;31340;51.402;0.016;2023-03-17T01:35:40;13.40;99.90
44775;DHT22;31340;51.402;0.016;2023-03-17T01:38:08;13.40;99.90
44775;DHT22;31340;51.402;0.016;2023-03-17T01:40:41;13.40;99.90
44775;DHT22;31340;51.402;0.016;2023-03-17T01:48:47;13.40;99.90
44775;DHT22;31340;51.402;0.016;2023-03-17T01:51:37;13.40;99.90
44775;DHT22;31340;51.402;0.016;2023-03-17T01:54:16;13.40;99.90
44775;DHT22;31340;51.402;0.016;2023-03-17T01:56:46;13.40;99.90
44775;DHT22;31340;51.402;0.016;2023-03-17T01:59:21;13.50;99.90
44775;DHT22;31340;51.402;0.016;2023-03-17T02:01:55;13.50;99.90
44775;DHT22;31340;51.402;0.016;2023-03-17T02:04:24;13.50;99.90
44775;DHT22;31340;51.402;0.016;2023-03-17T02:06:53;13.50;99.90
44775;DHT22;31340;51.402;0.016;2023-03-17T02:09:26;13.50;99.90
44775;DHT22;31340;51.402;0.016;2023-03-17T02:11:55;13.50;99.90
44775;DHT22;31340;51.402;0.016;2023-03-17T02:14:23;13.50;99.90
44775;DHT22;31340;51.402;0.016;2023-03-17T02:16:52;13.50;99.90
44775;DHT22;31340;51.402;0.016;2023-03-17T02:19:20;13.40;99.90
44775;DHT22;31340;51.402;0.016;2023-03-17T02:21:54;13.50;99.90
44775;DHT22;31340;51.402;0.016;2023-03-17T02:24:33;13.50;99.90
44775;DHT22;31340;51.402;0.016;2023-03-17T02:29:41;13.50;99.90
44775;DHT22;31340;51.402;0.016;2023-03-17T02:32:08;13.50;99.90
44775;DHT22;31340;51.402;0.016;2023-03-17T02:34:36;13.50;99.90
44775;DHT22;31340;51.402;0.016;2023-03-17T02:37:05;13.50;99.90
44775;DHT22;31340;51.402;0.016;2023-03-17T02:39:34;13.50;99.90
44775;DHT22;31340;51.402;0.016;2023-03-17T02:42:03;13.50;99.90
44775;DHT22;31340;51.402;0.016;2023-03-17T02:44:33;13.50;99.90
44775;DHT22;31340;51.402;0.016;2023-03-17T02:47:02;13.50;99.90
44775;DHT22;31340;51.402;0.016;2023-03-17T02:49:30;13.50;99.90
44775;DHT22;31340;51.402;0.016;2023-03-17T02:51:59;13.50;99.90
44775;DHT22;31340;51.402;0.016;2023-03-17T02:54:27;13.50;99.90
44775;DHT22;31340;51.402;0.016;2023-03-17T02:56:55;13.50;99.90
44775;DHT22;31340;51.402;0.016;2023-03-17T02:59:23;13.50;99.90
44775;DHT22;31340;51.402;0.016;2023-03-17T03:01:51;13.60;99.90
44775;DHT22;31340;51.402;0.016;2023-03-17T03:04:19;13.60;99.90
44775;DHT22;31340;51.402;0.016;2023-03-17T03:06:47;13.60;99.90
44775;DHT22;31340;51.402;0.016;2023-03-17T03:09:15;13.50;99.90
44775;DHT22;31340;51.402;0.016;2023-03-17T03:11:44;13.60;99.90
44775;DHT22;31340;51.402;0.016;2023-03-17T03:14:13;13.60;99.90
44775;DHT22;31340;51.402;0.016;2023-03-17T03:16:41;13.60;99.90
44775;DHT22;31340;51.402;0.016;2023-03-17T03:19:10;13.50;99.90
44775;DHT22;31340;51.402;0.016;2023-03-17T03:21:38;13.60;99.90
44775;DHT22;31340;51.402;0.016;2023-03-17T03:24:06;13.60;99.90
44775;DHT22;31340;51.402;0.016;2023-03-17T03:26:34;13.60;99.90
44775;DHT22;31340;51.402;0.016;2023-03-17T03:29:03;13.60;99.90
44775;DHT22;31340;51.402;0.016;2023-03-17T03:31:31;13.50;99.90
44775;DHT22;31340;51.402;0.016;2023-03-17T03:33:59;13.60;99.90
44775;DHT22;31340;51.402;0.016;2023-03-17T03:36:27;13.60;99.90
44775;DHT22;31340;51.402;0.016;2023-03-17T03:38:55;13.50;99.90
44775;DHT22;31340;51.402;0.016;2023-03-17T03:41:23;13.60;99.90
44775;DHT22;31340;51.402;0.016;2023-03-17T03:43:51;13.60;99.90
44775;DHT22;31340;51.402;0.016;2023-03-17T03:46:18;13.60;99.90
44775;DHT22;31340;51.402;0.016;2023-03-17T03:48:46;13.60;99.90
44775;DHT22;31340;51.402;0.016;2023-03-17T03:51:14;13.60;99.90
44775;DHT22;31340;51.402;0.016;2023-03-17T03:53:42;13.60;99.90
44775;DHT22;31340;51.402;0.016;2023-03-17T03:56:10;13.60;99.90
44775;DHT22;31340;51.402;0.016;2023-03-17T03:58:38;13.60;99.90
44775;DHT22;31340;51.402;0.016;2023-03-17T04:01:07;13.60;99.90
44775;DHT22;31340;51.402;0.016;2023-03-17T04:03:36;13.60;99.90
44775;DHT22;31340;51.402;0.016;2023-03-17T04:06:05;13.60;99.90
44775;DHT22;31340;51.402;0.016;2023-03-17T04:08:33;13.60;99.90
44775;DHT22;31340;51.402;0.016;2023-03-17T04:11:00;13.50;99.90
44775;DHT22;31340;51.402;0.016;2023-03-17T04:13:28;13.60;99.90
44775;DHT22;31340;51.402;0.016;2023-03-17T04:15:55;13.60;99.90
44775;DHT22;31340;51.402;0.016;2023-03-17T04:18:23;13.50;99.90
44775;DHT22;31340;51.402;0.016;2023-03-17T04:20:52;13.50;99.90
44775;DHT22;31340;51.402;0.016;2023-03-17T04:23:19;13.50;99.90
44775;DHT22;31340;51.402;0.016;2023-03-17T04:25:49;13.50;99.90
44775;DHT22;31340;51.402;0.016;2023-03-17T04:28:17;13.50;99.90
44775;DHT22;31340;51.402;0.016;2023-03-17T04:30:45;13.50;99.90
44775;DHT22;31340;51.402;0.016;2023-03-17T04:33:13;13.50;99.90
44775;DHT22;31340;51.402;0.016;2023-03-17T04:35:41;13.50;99.90
44775;DHT22;31340;51.402;0.016;2023-03-17T04:38:10;13.50;99.90
44775;DHT22;31340;51.402;0.016;2023-03-17T04:40:39;13.50;99.90
44775;DHT22;31340;51.402;0.016;2023-03-17T04:43:07;13.40;99.90
44775;DHT22;31340;51.402;0.016;2023-03-17T04:45:36;13.40;99.90
44775;DHT22;31340;51.402;0.016;2023-03-17T04:48:05;13.40;99.90
44775;DHT22;31340;51.402;0.016;2023-03-17T04:50:33;13.40;99.90
44775;DHT22;31340;51.402;0.016;2023-03-17T04:53:01;13.40;99.90
44775;DHT22;31340;51.402;0.016;2023-03-17T04:55:28;13.30;99.90
44775;DHT22;31340;51.402;0.016;2023-03-17T04:57:56;13.40;99.90
44775;DHT22;31340;51.402;0.016;2023-03-17T05:00:24;13.30;99.90
44775;DHT22;31340;51.402;0.016;2023-03-17T05:02:51;13.30;99.90
44775;DHT22;31340;51.402;0.016;2023-03-17T05:05:19;13.30;99.90
44775;DHT22;31340;51.402;0.016;2023-03-17T05:07:47;13.30;99.90
44775;DHT22;31340;51.402;0.016;2023-03-17T05:10:14;13.30;99.90
44775;DHT22;31340;51.402;0.016;2023-03-17T05:12:42;13.30;99.90
44775;DHT22;31340;51.402;0.016;2023-03-17T05:15:11;13.30;99.90
44775;DHT22;31340;51.402;0.016;2023-03-17T05:17:38;13.30;99.90
44775;DHT22;31340;51.402;0.016;2023-03-17T05:20:09;13.30;99.90
44775;DHT22;31340;51.402;0.016;2023-03-17T05:22:37;13.20;99.90
44775;DHT22;31340;51.402;0.016;2023-03-17T05:25:05;13.10;99.90
44775;DHT22;31340;51.402;0.016;2023-03-17T05:27:33;13.20;99.90
44775;DHT22;31340;51.402;0.016;2023-03-17T05:30:00;13.20;99.90
44775;DHT22;31340;51.402;0.016;2023-03-17T05:32:29;13.20;99.90
44775;DHT22;31340;51.402;0.016;2023-03-17T05:34:58;13.20;99.90
44775;DHT22;31340;51.402;0.016;2023-03-17T05:37:26;13.10;99.90
44775;DHT22;31340;51.402;0.016;2023-03-17T05:39:53;13.10;99.90
44775;DHT22;31340;51.402;0.016;2023-03-17T05:42:21;13.10;99.90
44775;DHT22;31340;51.402;0.016;2023-03-17T05:44:48;13.10;99.90
44775;DHT22;31340;51.402;0.016;2023-03-17T05:47:16;13.10;99.90
44775;DHT22;31340;51.402;0.016;2023-03-17T05:49:43;13.00;99.90
44775;DHT22;31340;51.402;0.016;2023-03-17T05:52:11;13.00;99.90
44775;DHT22;31340;51.402;0.016;2023-03-17T05:54:38;13.00;99.90
44775;DHT22;31340;51.402;0.016;2023-03-17T05:57:05;13.00;99.90
44775;DHT22;31340;51.402;0.016;2023-03-17T05:59:33;13.00;99.90
44775;DHT22;31340;51.402;0.016;2023-03-17T06:02:01;13.00;99.90
44775;DHT22;31340;51.402;0.016;2023-03-17T06:04:29;13.00;99.90
44775;DHT22;31340;51.402;0.016;2023-03-17T06:06:57;12.90;99.90
44775;DHT22;31340;51.402;0.016;2023-03-17T06:09:25;12.90;99.90
44775;DHT22;31340;51.402;0.016;2023-03-17T06:11:53;12.90;99.90
44775;DHT22;31340;51.402;0.016;2023-03-17T06:14:21;12.90;99.90
44775;DHT22;31340;51.402;0.016;2023-03-17T06:16:48;12.90;99.90
44775;DHT22;31340;51.402;0.016;2023-03-17T06:19:16;12.90;99.90
44775;DHT22;31340;51.402;0.016;2023-03-17T06:21:44;12.90;99.90
44775;DHT22;31340;51.402;0.016;2023-03-17T06:24:11;12.90;99.90
44775;DHT22;31340;51.402;0.016;2023-03-17T06:26:39;12.90;99.90
44775;DHT22;31340;51.402;0.016;2023-03-17T06:29:07;12.90;99.90
44775;DHT22;31340;51.402;0.016;2023-03-17T06:31:36;12.90;99.90
44775;DHT22;31340;51.402;0.016;2023-03-17T06:34:04;12.90;99.90
44775;DHT22;31340;51.402;0.016;2023-03-17T06:36:32;12.90;99.90
44775;DHT22;31340;51.402;0.016;2023-03-17T06:39:00;12.90;99.90
44775;DHT22;31340;51.402;0.016;2023-03-17T06:41:28;12.90;99.90
44775;DHT22;31340;51.402;0.016;2023-03-17T06:43:56;13.00;99.90
44775;DHT22;31340;51.402;0.016;2023-03-17T06:46:23;12.90;99.90
44775;DHT22;31340;51.402;0.016;2023-03-17T06:48:51;13.00;99.90
44775;DHT22;31340;51.402;0.016;2023-03-17T06:51:19;12.90;99.90
44775;DHT22;31340;51.402;0.016;2023-03-17T06:53:47;13.00;99.90
44775;DHT22;31340;51.402;0.016;2023-03-17T06:56:15;13.00;99.90
44775;DHT22;31340;51.402;0.016;2023-03-17T06:58:56;13.00;99.90
44775;DHT22;31340;51.402;0.016;2023-03-17T07:01:25;12.90;99.90
44775;DHT22;31340;51.402;0.016;2023-03-17T07:03:53;12.90;99.90
44775;DHT22;31340;51.402;0.016;2023-03-17T07:06:22;13.00;99.90
44775;DHT22;31340;51.402;0.016;2023-03-17T07:08:49;13.00;99.90
44775;DHT22;31340;51.402;0.016;2023-03-17T07:11:17;13.00;99.90
44775;DHT22;31340;51.402;0.016;2023-03-17T07:13:45;13.00;99.90
44775;DHT22;31340;51.402;0.016;2023-03-17T07:16:13;13.00;99.90
44775;DHT22;31340;51.402;0.016;2023-03-17T07:18:42;13.00;99.90
44775;DHT22;31340;51.402;0.016;2023-03-17T07:21:09;13.10;99.90
44775;DHT22;31340;51.402;0.016;2023-03-17T07:23:37;13.10;99.90
44775;DHT22;31340;51.402;0.016;2023-03-17T07:26:05;13.10;99.90
44775;DHT22;31340;51.402;0.016;2023-03-17T07:28:32;13.10;99.90
44775;DHT22;31340;51.402;0.016;2023-03-17T07:31:00;13.10;99.90
44775;DHT22;31340;51.402;0.016;2023-03-17T07:33:29;13.10;99.90
44775;DHT22;31340;51.402;0.016;2023-03-17T07:35:57;13.10;99.90
44775;DHT22;31340;51.402;0.016;2023-03-17T07:38:25;13.10;99.90
44775;DHT22;31340;51.402;0.016;2023-03-17T07:40:52;13.10;99.90
44775;DHT22;31340;51.402;0.016;2023-03-17T07:43:21;13.10;99.90
44775;DHT22;31340;51.402;0.016;2023-03-17T07:45:49;13.10;99.90
44775;DHT22;31340;51.402;0.016;2023-03-17T07:48:17;13.10;99.90
44775;DHT22;31340;51.402;0.016;2023-03-17T07:50:45;13.10;99.90
44775;DHT22;31340;51.402;0.016;2023-03-17T07:53:12;13.10;99.90
44775;DHT22;31340;51.402;0.016;2023-03-17T07:55:40;13.10;99.90
44775;DHT22;31340;51.402;0.016;2023-03-17T07:58:07;13.10;99.90
44775;DHT22;31340;51.402;0.016;2023-03-17T08:00:35;13.20;99.90
44775;DHT22;31340;51.402;0.016;2023-03-17T08:03:03;13.10;99.90
44775;DHT22;31340;51.402;0.016;2023-03-17T08:05:37;13.10;99.90
44775;DHT22;31340;51.402;0.016;2023-03-17T08:08:04;13.20;99.90
44775;DHT22;31340;51.402;0.016;2023-03-17T08:10:33;13.10;99.90
44775;DHT22;31340;51.402;0.016;2023-03-17T08:13:01;13.10;99.90
44775;DHT22;31340;51.402;0.016;2023-03-17T08:15:29;13.10;99.90
44775;DHT22;31340;51.402;0.016;2023-03-17T08:17:57;13.10;99.90
44775;DHT22;31340;51.402;0.016;2023-03-17T08:20:24;13.10;99.90
44775;DHT22;31340;51.402;0.016;2023-03-17T08:22:52;13.00;99.90
44775;DHT22;31340;51.402;0.016;2023-03-17T08:25:20;13.10;99.90
44775;DHT22;31340;51.402;0.016;2023-03-17T08:27:48;13.10;99.90
44775;DHT22;31340;51.402;0.016;2023-03-17T08:30:16;13.10;99.90
44775;DHT22;31340;51.402;0.016;2023-03-17T08:32:44;13.00;99.90
44775;DHT22;31340;51.402;0.016;2023-03-17T08:35:15;13.10;99.90
44775;DHT22;31340;51.402;0.016;2023-03-17T08:37:44;13.10;99.90
44775;DHT22;31340;51.402;0.016;2023-03-17T08:40:15;13.10;99.90
44775;DHT22;31340;51.402;0.016;2023-03-17T08:42:47;13.10;99.90
44775;DHT22;31340;51.402;0.016;2023-03-17T08:45:16;13.10;99.90
44775;DHT22;31340;51.402;0.016;2023-03-17T08:47:45;13.20;99.90
44775;DHT22;31340;51.402;0.016;2023-03-17T08:50:16;13.20;99.90
44775;DHT22;31340;51.402;0.016;2023-03-17T08:52:45;13.20;99.90
44775;DHT22;31340;51.402;0.016;2023-03-17T08:55:14;13.20;99.90
44775;DHT22;31340;51.402;0.016;2023-03-17T08:57:42;13.20;99.90
44775;DHT22;31340;51.402;0.016;2023-03-17T09:00:15;13.20;99.90
44775;DHT22;31340;51.402;0.016;2023-03-17T09:02:47;13.20;99.90
44775;DHT22;31340;51.402;0.016;2023-03-17T09:05:16;13.10;99.90
44775;DHT22;31340;51.402;0.016;2023-03-17T09:07:44;13.20;99.90
44775;DHT22;31340;51.402;0.016;2023-03-17T09:10:12;13.20;99.90
44775;DHT22;31340;51.402;0.016;2023-03-17T09:12:41;13.30;99.90
44775;DHT22;31340;51.402;0.016;2023-03-17T09:15:10;13.30;99.90
44775;DHT22;31340;51.402;0.016;2023-03-17T09:17:38;13.30;99.90
44775;DHT22;31340;51.402;0.016;2023-03-17T09:20:06;13.30;99.90
44775;DHT22;31340;51.402;0.016;2023-03-17T09:22:34;13.30;99.90
44775;DHT22;31340;51.402;0.016;2023-03-17T09:25:02;13.30;99.90
44775;DHT22;31340;51.402;0.016;2023-03-17T09:27:29;13.30;99.90
44775;DHT22;31340;51.402;0.016;2023-03-17T09:29:57;13.30;99.90
44775;DHT22;31340;51.402;0.016;2023-03-17T09:32:24;13.30;99.90
44775;DHT22;31340;51.402;0.016;2023-03-17T09:34:52;13.30;99.90
44775;DHT22;31340;51.402;0.016;2023-03-17T09:37:19;13.40;99.90
44775;DHT22;31340;51.402;0.016;2023-03-17T09:39:47;13.30;99.90
44775;DHT22;31340;51.402;0.016;2023-03-17T09:47:52;13.50;99.90
44775;DHT22;31340;51.402;0.016;2023-03-17T09:50:41;13.50;99.90
44775;DHT22;31340;51.402;0.016;2023-03-17T09:56:09;13.50;99.90
44775;DHT22;31340;51.402;0.016;2023-03-17T09:58:41;13.60;99.90
44775;DHT22;31340;51.402;0.016;2023-03-17T10:01:09;13.60;99.90
44775;DHT22;31340;51.402;0.016;2023-03-17T10:03:37;13.60;99.90
44775;DHT22;31340;51.402;0.016;2023-03-17T10:08:50;13.80;99.90
44775;DHT22;31340;51.402;0.016;2023-03-17T10:11:46;13.80;99.90
44775;DHT22;31340;51.402;0.016;2023-03-17T10:19:46;13.90;99.90
44775;DHT22;31340;51.402;0.016;2023-03-17T10:25:18;14.00;99.90
44775;DHT22;31340;51.402;0.016;2023-03-17T10:28:06;14.00;99.90
44775;DHT22;31340;51.402;0.016;2023-03-17T10:30:39;14.10;99.90
44775;DHT22;31340;51.402;0.016;2023-03-17T10:33:06;14.10;99.90
44775;DHT22;31340;51.402;0.016;2023-03-17T10:35:35;14.10;99.90
44775;DHT22;31340;51.402;0.016;2023-03-17T10:38:16;14.10;99.90
44775;DHT22;31340;51.402;0.016;2023-03-17T10:41:08;14.10;99.90
44775;DHT22;31340;51.402;0.016;2023-03-17T10:43:45;14.10;99.90
44775;DHT22;31340;51.402;0.016;2023-03-17T10:46:20;14.10;99.90
44775;DHT22;31340;51.402;0.016;2023-03-17T10:49:08;14.10;99.90
44775;DHT22;31340;51.402;0.016;2023-03-17T10:51:37;14.10;99.90
44775;DHT22;31340;51.402;0.016;2023-03-17T10:54:15;14.10;99.90
44775;DHT22;31340;51.402;0.016;2023-03-17T10:56:48;14.10;99.90
44775;DHT22;31340;51.402;0.016;2023-03-17T11:01:52;14.10;99.90
44775;DHT22;31340;51.402;0.016;2023-03-17T11:06:57;14.10;99.90
44775;DHT22;31340;51.402;0.016;2023-03-17T11:09:26;14.10;99.90
44775;DHT22;31340;51.402;0.016;2023-03-17T11:12:22;14.20;99.90
44775;DHT22;31340;51.402;0.016;2023-03-17T11:14:56;14.20;99.90
44775;DHT22;31340;51.402;0.016;2023-03-17T11:18:15;14.10;99.90
44775;DHT22;31340;51.402;0.016;2023-03-17T11:25:43;14.10;99.90
44775;DHT22;31340;51.402;0.016;2023-03-17T11:28:25;14.20;99.90
44775;DHT22;31340;51.402;0.016;2023-03-17T11:31:05;14.10;99.90
44775;DHT22;31340;51.402;0.016;2023-03-17T11:36:44;14.10;99.90
44775;DHT22;31340;51.402;0.016;2023-03-17T11:39:28;14.10;99.90
44775;DHT22;31340;51.402;0.016;2023-03-17T11:45:10;14.10;99.90
44775;DHT22;31340;51.402;0.016;2023-03-17T11:48:01;14.10;99.90
44775;DHT22;31340;51.402;0.016;2023-03-17T11:50:44;14.10;99.90
44775;DHT22;31340;51.402;0.016;2023-03-17T11:56:35;14.20;99.90
44775;DHT22;31340;51.402;0.016;2023-03-17T11:59:09;14.10;99.90
44775;DHT22;31340;51.402;0.016;2023-03-17T12:04:36;14.20;99.90
44775;DHT22;31340;51.402;0.016;2023-03-17T12:07:20;14.10;99.90
44775;DHT22;31340;51.402;0.016;2023-03-17T12:10:20;14.10;99.90
44775;DHT22;31340;51.402;0.016;2023-03-17T12:12:53;14.10;99.90
44775;DHT22;31340;51.402;0.016;2023-03-17T12:15:42;14.20;99.90
44775;DHT22;31340;51.402;0.016;2023-03-17T12:18:32;14.10;99.90
44775;DHT22;31340;51.402;0.016;2023-03-17T12:21:24;14.10;99.90
44775;DHT22;31340;51.402;0.016;2023-03-17T12:23:59;14.20;99.90
44775;DHT22;31340;51.402;0.016;2023-03-17T12:26:52;14.10;99.90
44775;DHT22;31340;51.402;0.016;2023-03-17T12:32:28;14.10;99.90
44775;DHT22;31340;51.402;0.016;2023-03-17T12:35:26;14.20;99.90
44775;DHT22;31340;51.402;0.016;2023-03-17T12:37:53;14.20;99.90
44775;DHT22;31340;51.402;0.016;2023-03-17T12:40:26;14.20;99.90
44775;DHT22;31340;51.402;0.016;2023-03-17T12:43:25;14.20;99.90
44775;DHT22;31340;51.402;0.016;2023-03-17T12:46:14;14.20;99.90
44775;DHT22;31340;51.402;0.016;2023-03-17T12:54:18;14.20;99.90
44775;DHT22;31340;51.402;0.016;2023-03-17T12:56:48;14.20;99.90
44775;DHT22;31340;51.402;0.016;2023-03-17T12:59:24;14.30;99.90
44775;DHT22;31340;51.402;0.016;2023-03-17T13:01:58;14.20;99.90
44775;DHT22;31340;51.402;0.016;2023-03-17T13:04:33;14.30;99.90
44775;DHT22;31340;51.402;0.016;2023-03-17T13:07:16;14.30;99.90
44775;DHT22;31340;51.402;0.016;2023-03-17T13:18:21;14.30;99.90
44775;DHT22;31340;51.402;0.016;2023-03-17T13:21:10;14.30;99.90
44775;DHT22;31340;51.402;0.016;2023-03-17T13:23:43;14.30;99.90
44775;DHT22;31340;51.402;0.016;2023-03-17T13:26:13;14.30;99.90
44775;DHT22;31340;51.402;0.016;2023-03-17T13:28:44;14.30;99.90
44775;DHT22;31340;51.402;0.016;2023-03-17T13:31:33;14.30;99.90
44775;DHT22;31340;51.402;0.016;2023-03-17T13:34:16;14.40;99.90
44775;DHT22;31340;51.402;0.016;2023-03-17T13:37:28;14.40;99.90
44775;DHT22;31340;51.402;0.016;2023-03-17T13:45:47;14.30;99.90
44775;DHT22;31340;51.402;0.016;2023-03-17T13:53:45;14.40;99.90
44775;DHT22;31340;51.402;0.016;2023-03-17T13:56:17;14.40;99.90
44775;DHT22;31340;51.402;0.016;2023-03-17T13:59:17;14.40;99.90
44775;DHT22;31340;51.402;0.016;2023-03-17T14:01:55;14.50;99.90
44775;DHT22;31340;51.402;0.016;2023-03-17T14:04:27;14.50;99.90
44775;DHT22;31340;51.402;0.016;2023-03-17T14:06:58;14.70;99.90
44775;DHT22;31340;51.402;0.016;2023-03-17T14:09:34;14.90;99.90
44775;DHT22;31340;51.402;0.016;2023-03-17T14:12:40;15.10;99.90
44775;DHT22;31340;51.402;0.016;2023-03-17T14:15:31;15.40;99.90
44775;DHT22;31340;51.402;0.016;2023-03-17T14:18:06;15.50;99.90
44775;DHT22;31340;51.402;0.016;2023-03-17T14:20:34;15.70;99.90
44775;DHT22;31340;51.402;0.016;2023-03-17T14:23:03;15.90;99.90
44775;DHT22;31340;51.402;0.016;2023-03-17T14:25:33;16.10;99.90
44775;DHT22;31340;51.402;0.016;2023-03-17T14:28:04;16.20;99.90
44775;DHT22;31340;51.402;0.016;2023-03-17T14:30:37;16.40;99.90
44775;DHT22;31340;51.402;0.016;2023-03-17T14:33:12;16.50;99.90
44775;DHT22;31340;51.402;0.016;2023-03-17T14:35:42;16.70;99.90
44775;DHT22;31340;51.402;0.016;2023-03-17T14:38:28;17.00;99.90
44775;DHT22;31340;51.402;0.016;2023-03-17T14:41:04;17.40;99.90
44775;DHT22;31340;51.402;0.016;2023-03-17T14:43:34;17.60;99.90
44775;DHT22;31340;51.402;0.016;2023-03-17T14:46:58;18.00;99.90
44775;DHT22;31340;51.402;0.016;2023-03-17T14:49:15;18.20;99.90
44775;DHT22;31340;51.402;0.016;2023-03-17T14:51:44;18.70;99.90
44775;DHT22;31340;51.402;0.016;2023-03-17T14:54:19;19.00;99.90
44775;DHT22;31340;51.402;0.016;2023-03-17T14:56:56;19.30;99.90
44775;DHT22;31340;51.402;0.016;2023-03-17T14:59:36;19.50;99.90
44775;DHT22;31340;51.402;0.016;2023-03-17T15:02:23;19.90;99.90
44775;DHT22;31340;51.402;0.016;2023-03-17T15:07:47;20.40;99.90
44775;DHT22;31340;51.402;0.016;2023-03-17T15:10:17;20.60;99.70
44775;DHT22;31340;51.402;0.016;2023-03-17T15:12:46;20.80;99.10
44775;DHT22;31340;51.402;0.016;2023-03-17T15:15:21;20.90;98.20
44775;DHT22;31340;51.402;0.016;2023-03-17T15:17:53;20.90;97.90
44775;DHT22;31340;51.402;0.016;2023-03-17T15:20:22;21.00;97.40
44775;DHT22;31340;51.402;0.016;2023-03-17T15:23:23;21.20;96.50
44775;DHT22;31340;51.402;0.016;2023-03-17T15:25:53;21.40;95.40
44775;DHT22;31340;51.402;0.016;2023-03-17T15:28:28;21.50;94.90
44775;DHT22;31340;51.402;0.016;2023-03-17T15:31:11;21.60;94.60
44775;DHT22;31340;51.402;0.016;2023-03-17T15:33:39;21.70;94.40
44775;DHT22;31340;51.402;0.016;2023-03-17T15:36:14;21.90;94.40
44775;DHT22;31340;51.402;0.016;2023-03-17T15:38:57;22.00;94.00
44775;DHT22;31340;51.402;0.016;2023-03-17T15:41:25;22.20;94.00
44775;DHT22;31340;51.402;0.016;2023-03-17T15:43:52;22.40;93.30
44775;DHT22;31340;51.402;0.016;2023-03-17T15:46:24;22.50;92.80
44775;DHT22;31340;51.402;0.016;2023-03-17T15:48:53;22.60;92.10
44775;DHT22;31340;51.402;0.016;2023-03-17T15:51:21;22.70;92.00
44775;DHT22;31340;51.402;0.016;2023-03-17T15:53:48;22.80;91.50
44775;DHT22;31340;51.402;0.016;2023-03-17T15:56:20;22.80;91.40
44775;DHT22;31340;51.402;0.016;2023-03-17T15:58:48;22.90;90.80
44775;DHT22;31340;51.402;0.016;2023-03-17T16:01:19;23.00;90.90
44775;DHT22;31340;51.402;0.016;2023-03-17T16:03:47;23.10;90.30
44775;DHT22;31340;51.402;0.016;2023-03-17T16:06:18;23.10;90.00
44775;DHT22;31340;51.402;0.016;2023-03-17T16:08:46;23.00;89.20
44775;DHT22;31340;51.402;0.016;2023-03-17T16:11:19;23.00;88.60
44775;DHT22;31340;51.402;0.016;2023-03-17T16:13:48;23.00;86.80
44775;DHT22;31340;51.402;0.016;2023-03-17T16:16:20;23.00;87.20
44775;DHT22;31340;51.402;0.016;2023-03-17T16:18:50;23.00;87.30
44775;DHT22;31340;51.402;0.016;2023-03-17T16:21:19;23.00;87.20
44775;DHT22;31340;51.402;0.016;2023-03-17T16:23:47;23.00;86.50
44775;DHT22;31340;51.402;0.016;2023-03-17T16:26:15;23.10;86.30
44775;DHT22;31340;51.402;0.016;2023-03-17T16:28:44;23.10;85.50
44775;DHT22;31340;51.402;0.016;2023-03-17T16:31:24;23.10;85.90
44775;DHT22;31340;51.402;0.016;2023-03-17T16:33:53;22.90;84.20
44775;DHT22;31340;51.402;0.016;2023-03-17T16:36:22;22.70;84.50
44775;DHT22;31340;51.402;0.016;2023-03-17T16:38:50;22.50;83.30
44775;DHT22;31340;51.402;0.016;2023-03-17T16:41:25;22.30;83.50
44775;DHT22;31340;51.402;0.016;2023-03-17T16:43:59;22.00;84.20
44775;DHT22;31340;51.402;0.016;2023-03-17T16:46:31;21.70;84.90
44775;DHT22;31340;51.402;0.016;2023-03-17T16:49:02;21.40;85.60
44775;DHT22;31340;51.402;0.016;2023-03-17T16:51:30;21.20;86.70
44775;DHT22;31340;51.402;0.016;2023-03-17T16:53:57;20.90;87.30
44775;DHT22;31340;51.402;0.016;2023-03-17T16:56:26;20.70;87.70
44775;DHT22;31340;51.402;0.016;2023-03-17T16:58:53;20.50;88.20
44775;DHT22;31340;51.402;0.016;2023-03-17T17:01:24;20.20;88.90
44775;DHT22;31340;51.402;0.016;2023-03-17T17:03:52;20.00;89.70
44775;DHT22;31340;51.402;0.016;2023-03-17T17:06:21;19.80;90.10
44775;DHT22;31340;51.402;0.016;2023-03-17T17:08:49;19.60;90.50
44775;DHT22;31340;51.402;0.016;2023-03-17T17:11:18;19.40;90.80
44775;DHT22;31340;51.402;0.016;2023-03-17T17:13:47;19.20;91.00
44775;DHT22;31340;51.402;0.016;2023-03-17T17:16:21;19.00;91.20
44775;DHT22;31340;51.402;0.016;2023-03-17T17:18:51;18.90;91.50